createdAt,value
2022-11-29T00:01:03.095Z,95175.97
2022-11-29T00:03:31.390Z,95170.59
2022-11-29T00:06:07.049Z,95162.72
2022-11-29T00:08:35.282Z,95168.78
2022-11-29T00:11:06.643Z,95163.59
2022-11-29T00:13:35.690Z,95164.88
2022-11-29T00:16:05.310Z,95168.00
2022-11-29T00:18:33.158Z,95168.00
2022-11-29T00:21:01.222Z,95162.69
2022-11-29T00:23:28.845Z,95165.94
2022-11-29T00:25:56.493Z,95155.06
2022-11-29T00:28:24.135Z,95156.00
2022-11-29T00:30:53.321Z,95157.63
2022-11-29T00:33:21.041Z,95151.75
2022-11-29T00:35:48.714Z,95152.16
2022-11-29T00:38:16.361Z,95153.59
2022-11-29T00:40:43.967Z,95156.47
2022-11-29T00:43:11.575Z,95154.63
2022-11-29T00:45:39.282Z,95156.09
2022-11-29T00:48:08.416Z,95156.47
2022-11-29T00:50:36.022Z,95152.72
2022-11-29T00:53:03.723Z,95150.59
2022-11-29T00:55:32.448Z,95147.94
2022-11-29T00:58:00.255Z,95145.94
2022-11-29T01:00:28.151Z,95152.88
2022-11-29T01:02:55.804Z,95151.09
2022-11-29T01:05:25.032Z,95153.00
2022-11-29T01:07:52.692Z,95150.44
2022-11-29T01:10:20.657Z,95158.22
2022-11-29T01:12:48.354Z,95154.66
2022-11-29T01:15:16.107Z,95149.78
2022-11-29T01:17:43.680Z,95145.06
2022-11-29T01:20:13.445Z,95152.97
2022-11-29T01:22:42.459Z,95154.03
2022-11-29T01:25:12.482Z,95149.38
2022-11-29T01:27:40.440Z,95159.38
2022-11-29T01:30:11.073Z,95159.50
2022-11-29T01:32:39.162Z,95153.75
2022-11-29T01:35:07.828Z,95153.50
2022-11-29T01:37:35.504Z,95155.16
2022-11-29T01:40:05.374Z,95155.84
2022-11-29T01:42:33.248Z,95152.22
2022-11-29T01:45:08.204Z,95150.50
2022-11-29T01:47:47.344Z,95147.47
2022-11-29T01:50:15.300Z,95144.84
2022-11-29T01:52:43.173Z,95149.25
2022-11-29T01:55:13.351Z,95152.34
2022-11-29T01:57:42.517Z,95145.78
2022-11-29T02:00:12.886Z,95131.19
2022-11-29T02:02:43.557Z,95144.00
2022-11-29T02:05:13.643Z,95146.28
2022-11-29T02:07:44.544Z,95136.66
2022-11-29T02:10:16.458Z,95147.22
2022-11-29T02:12:59.941Z,95146.44
2022-11-29T02:15:40.190Z,95142.84
2022-11-29T02:18:12.150Z,95146.00
2022-11-29T02:21:03.826Z,95140.34
2022-11-29T02:24:07.465Z,95136.56
2022-11-29T02:27:14.154Z,95148.28
2022-11-29T02:30:07.904Z,95137.75
2022-11-29T02:33:03.585Z,95139.38
2022-11-29T02:35:49.782Z,95137.47
2022-11-29T02:38:34.111Z,95134.28
2022-11-29T02:41:19.832Z,95140.72
2022-11-29T02:44:03.919Z,95141.28
2022-11-29T02:46:52.702Z,95140.88
2022-11-29T02:49:32.528Z,95137.16
2022-11-29T02:52:02.994Z,95142.91
2022-11-29T02:54:39.784Z,95139.16
2022-11-29T02:57:20.474Z,95138.13
2022-11-29T02:59:55.924Z,95146.41
2022-11-29T03:02:32.648Z,95151.69
2022-11-29T03:05:10.666Z,95143.66
2022-11-29T03:07:46.166Z,95153.75
2022-11-29T03:10:24.434Z,95154.81
2022-11-29T03:12:54.740Z,95149.88
2022-11-29T03:15:30.002Z,95156.78
2022-11-29T03:18:09.850Z,95158.31
2022-11-29T03:20:55.061Z,95161.84
2022-11-29T03:23:26.747Z,95162.31
2022-11-29T03:26:00.369Z,95166.41
2022-11-29T03:28:32.260Z,95171.91
2022-11-29T03:31:07.843Z,95183.19
2022-11-29T03:33:42.747Z,95178.13
2022-11-29T03:36:19.059Z,95178.41
2022-11-29T03:38:48.524Z,95176.84
2022-11-29T03:41:26.261Z,95166.09
2022-11-29T03:44:00.649Z,95166.31
2022-11-29T03:46:33.030Z,95169.78
2022-11-29T03:49:04.680Z,95170.53
2022-11-29T03:51:44.816Z,95170.53
2022-11-29T03:54:17.561Z,95173.78
2022-11-29T03:56:45.756Z,95180.81
2022-11-29T03:59:41.624Z,95167.13
2022-11-29T04:02:34.722Z,95173.19
2022-11-29T04:05:30.360Z,95174.44
2022-11-29T04:08:08.854Z,95181.25
2022-11-29T04:10:58.164Z,95176.47
2022-11-29T04:14:11.762Z,95175.72
2022-11-29T04:17:19.069Z,95173.50
2022-11-29T04:20:36.277Z,95172.31
2022-11-29T04:23:38.827Z,95166.56
2022-11-29T04:26:41.166Z,95168.78
2022-11-29T04:29:16.573Z,95166.06
2022-11-29T04:32:02.649Z,95166.69
2022-11-29T04:34:51.261Z,95164.81
2022-11-29T04:37:48.077Z,95158.13
2022-11-29T04:40:33.059Z,95169.50
2022-11-29T04:43:31.335Z,95172.31
2022-11-29T04:46:32.886Z,95164.31
2022-11-29T04:49:16.760Z,95172.28
2022-11-29T04:52:01.605Z,95177.91
2022-11-29T04:54:36.653Z,95181.19
2022-11-29T04:57:12.528Z,95175.09
2022-11-29T04:59:47.027Z,95177.22
2022-11-29T05:02:27.760Z,95177.97
2022-11-29T05:05:05.021Z,95180.75
2022-11-29T05:07:40.419Z,95176.56
2022-11-29T05:10:25.372Z,95182.53
2022-11-29T05:13:04.884Z,95181.50
2022-11-29T05:16:09.702Z,95183.97
2022-11-29T05:19:07.588Z,95181.94
2022-11-29T05:21:49.526Z,95187.44
2022-11-29T05:24:29.950Z,95178.16
2022-11-29T05:27:07.952Z,95188.13
2022-11-29T05:29:42.959Z,95188.44
2022-11-29T05:32:26.948Z,95188.69
2022-11-29T05:35:20.428Z,95192.19
2022-11-29T05:37:51.473Z,95192.66
2022-11-29T05:40:37.220Z,95188.91
2022-11-29T05:43:19.703Z,95204.09
2022-11-29T05:45:56.592Z,95195.50
2022-11-29T05:48:32.479Z,95204.09
2022-11-29T05:51:12.350Z,95201.13
2022-11-29T05:53:46.956Z,95199.69
2022-11-29T05:56:30.091Z,95206.84
2022-11-29T05:59:02.064Z,95207.66
2022-11-29T06:01:36.189Z,95207.34
2022-11-29T06:04:14.582Z,95200.13
2022-11-29T06:06:48.737Z,95202.69
2022-11-29T06:09:22.960Z,95202.22
2022-11-29T06:11:56.632Z,95210.03
2022-11-29T06:14:55.416Z,95215.09
2022-11-29T06:17:43.157Z,95209.91
2022-11-29T06:20:27.762Z,95213.22
2022-11-29T06:23:28.959Z,95209.03
2022-11-29T06:26:11.948Z,95216.75
2022-11-29T06:28:55.725Z,95227.47
2022-11-29T06:31:28.331Z,95214.63
2022-11-29T06:34:07.403Z,95215.34
2022-11-29T06:36:41.056Z,95221.22
2022-11-29T06:39:10.861Z,95221.53
2022-11-29T06:41:38.735Z,95228.13
2022-11-29T06:44:07.389Z,95224.19
2022-11-29T06:46:45.687Z,95228.41
2022-11-29T06:49:23.495Z,95223.16
2022-11-29T06:52:03.592Z,95220.91
2022-11-29T06:54:43.197Z,95225.25
2022-11-29T06:57:19.678Z,95230.41
2022-11-29T07:00:02.405Z,95230.41
2022-11-29T07:02:45.612Z,95237.47
2022-11-29T07:05:24.748Z,95236.03
2022-11-29T07:07:55.077Z,95239.75
2022-11-29T07:10:23.900Z,95239.47
2022-11-29T07:12:52.494Z,95233.78
2022-11-29T07:15:22.592Z,95244.31
2022-11-29T07:18:03.276Z,95237.28
2022-11-29T07:20:40.395Z,95248.34
2022-11-29T07:23:17.519Z,95245.03
2022-11-29T07:25:56.882Z,95243.53
2022-11-29T07:28:36.073Z,95250.91
2022-11-29T07:31:10.480Z,95243.56
2022-11-29T07:33:49.526Z,95246.91
2022-11-29T07:36:28.170Z,95243.19
2022-11-29T07:39:04.628Z,95257.63
2022-11-29T07:41:43.349Z,95247.22
2022-11-29T07:44:18.571Z,95246.50
2022-11-29T07:46:46.281Z,95255.88
2022-11-29T07:49:13.937Z,95247.59
2022-11-29T07:51:43.064Z,95250.28
2022-11-29T07:54:11.699Z,95252.19
2022-11-29T07:56:39.310Z,95257.78
2022-11-29T07:59:10.950Z,95256.75
2022-11-29T08:01:38.597Z,95254.06
2022-11-29T08:04:06.851Z,95257.16
2022-11-29T08:06:35.145Z,95253.22
2022-11-29T08:09:06.807Z,95259.91
2022-11-29T08:11:34.675Z,95262.69
2022-11-29T08:14:03.632Z,95257.53
2022-11-29T08:16:31.330Z,95263.22
2022-11-29T08:18:59.135Z,95259.34
2022-11-29T08:21:27.201Z,95267.72
2022-11-29T08:23:54.913Z,95269.09
2022-11-29T08:26:28.229Z,95278.94
2022-11-29T08:28:59.019Z,95274.81
2022-11-29T08:31:26.704Z,95264.34
2022-11-29T08:33:54.298Z,95272.09
2022-11-29T08:36:22.380Z,95271.06
2022-11-29T08:38:52.831Z,95270.34
2022-11-29T08:41:26.211Z,95274.25
2022-11-29T08:43:53.835Z,95270.34
2022-11-29T08:46:21.436Z,95279.16
2022-11-29T08:48:49.563Z,95268.88
2022-11-29T08:51:17.239Z,95280.53
2022-11-29T08:53:45.994Z,95275.03
2022-11-29T08:57:04.521Z,95276.34
2022-11-29T08:59:04.853Z,95276.88
2022-11-29T09:01:32.581Z,95284.22
2022-11-29T09:04:07.820Z,95284.28
2022-11-29T09:06:39.371Z,95285.53
2022-11-29T09:09:07.455Z,95281.56
2022-11-29T09:11:37.091Z,95287.25
2022-11-29T09:14:08.179Z,95286.53
2022-11-29T09:16:38.298Z,95300.72
2022-11-29T09:19:06.687Z,95293.59
2022-11-29T09:21:36.662Z,95288.06
2022-11-29T09:24:06.420Z,95294.44
2022-11-29T09:26:35.724Z,95293.03
2022-11-29T09:29:06.768Z,95293.72
2022-11-29T09:31:35.200Z,95305.94
2022-11-29T09:34:03.146Z,95300.00
2022-11-29T09:36:30.957Z,95299.81
2022-11-29T09:38:59.072Z,95298.03
2022-11-29T09:42:09.823Z,95298.59
2022-11-29T09:44:50.497Z,95295.94
2022-11-29T09:47:32.874Z,95298.75
2022-11-29T09:50:17.700Z,95299.34
2022-11-29T09:52:52.085Z,95299.75
2022-11-29T09:55:39.238Z,95301.88
2022-11-29T09:58:11.547Z,95307.69
2022-11-29T10:00:51.220Z,95298.31
2022-11-29T10:03:25.373Z,95308.53
2022-11-29T10:05:58.329Z,95303.69
2022-11-29T10:08:32.546Z,95302.91
2022-11-29T10:11:15.255Z,95313.91
2022-11-29T10:13:48.351Z,95304.19
2022-11-29T10:16:24.966Z,95303.38
2022-11-29T10:18:59.472Z,95307.94
2022-11-29T10:21:34.038Z,95314.75
2022-11-29T10:24:05.568Z,95309.56
2022-11-29T10:26:35.518Z,95296.56
2022-11-29T10:29:03.598Z,95299.47
2022-11-29T10:31:40.118Z,95301.41
2022-11-29T10:34:14.120Z,95295.66
2022-11-29T10:36:45.064Z,95302.78
2022-11-29T10:39:17.143Z,95293.59
2022-11-29T10:41:45.239Z,95291.13
2022-11-29T10:44:15.434Z,95285.97
2022-11-29T10:46:44.433Z,95295.75
2022-11-29T10:49:16.001Z,95294.44
2022-11-29T10:51:43.971Z,95296.19
2022-11-29T10:54:26.480Z,95288.00
2022-11-29T10:56:56.737Z,95292.56
2022-11-29T10:59:25.958Z,95294.75
2022-11-29T11:01:55.798Z,95291.41
2022-11-29T11:04:29.190Z,95301.97
2022-11-29T11:07:01.027Z,95298.28
2022-11-29T11:09:37.363Z,95295.66
2022-11-29T11:12:08.032Z,95300.81
2022-11-29T11:14:38.631Z,95300.09
2022-11-29T11:17:26.046Z,95298.06
2022-11-29T11:20:00.761Z,95295.19
2022-11-29T11:22:29.929Z,95295.91
2022-11-29T11:25:00.683Z,95287.66
2022-11-29T11:27:33.773Z,95294.44
2022-11-29T11:30:02.843Z,95296.44
2022-11-29T11:32:31.860Z,95291.16
2022-11-29T11:35:01.178Z,95303.63
2022-11-29T11:37:30.617Z,95295.88
2022-11-29T11:40:00.670Z,95302.00
2022-11-29T11:42:39.378Z,95302.19
2022-11-29T11:45:26.655Z,95308.59
2022-11-29T11:47:58.642Z,95306.13
2022-11-29T11:50:30.299Z,95295.88
2022-11-29T11:52:59.479Z,95301.88
2022-11-29T11:55:32.269Z,95305.41
2022-11-29T11:58:10.367Z,95304.84
2022-11-29T12:01:03.353Z,95300.75
2022-11-29T12:03:50.917Z,95305.81
2022-11-29T12:06:30.145Z,95304.47
2022-11-29T12:09:04.693Z,95299.53
2022-11-29T12:11:39.095Z,95307.16
2022-11-29T12:14:09.007Z,95306.31
2022-11-29T12:16:40.211Z,95312.31
2022-11-29T12:19:24.482Z,95307.16
2022-11-29T12:21:55.971Z,95311.50
2022-11-29T12:24:30.454Z,95309.25
2022-11-29T12:27:04.412Z,95312.78
2022-11-29T12:29:34.731Z,95313.22
2022-11-29T12:32:15.602Z,95308.00
2022-11-29T12:35:00.762Z,95309.25
2022-11-29T12:37:36.165Z,95313.66
2022-11-29T12:40:07.718Z,95315.25
2022-11-29T12:42:50.192Z,95317.44
2022-11-29T12:45:39.338Z,95319.91
2022-11-29T12:48:17.311Z,95317.97
2022-11-29T12:50:59.498Z,95314.66
2022-11-29T12:53:45.866Z,95320.66
2022-11-29T12:56:17.068Z,95320.84
2022-11-29T12:58:57.316Z,95319.44
2022-11-29T13:01:34.533Z,95318.41
2022-11-29T13:04:13.115Z,95317.81
2022-11-29T13:06:50.486Z,95318.72
2022-11-29T13:09:33.903Z,95324.00
2022-11-29T13:12:07.425Z,95327.19
2022-11-29T13:14:44.277Z,95320.28
2022-11-29T13:17:25.298Z,95327.13
2022-11-29T13:19:57.098Z,95338.13
2022-11-29T13:22:31.657Z,95328.41
2022-11-29T13:25:02.927Z,95333.00
2022-11-29T13:27:34.196Z,95335.91
2022-11-29T13:30:02.522Z,95332.69
2022-11-29T13:32:36.263Z,95338.03
2022-11-29T13:35:09.556Z,95332.03
2022-11-29T13:37:43.510Z,95342.56
2022-11-29T13:40:24.635Z,95339.91
2022-11-29T13:43:02.229Z,95336.69
2022-11-29T13:45:38.513Z,95347.75
2022-11-29T13:48:32.816Z,95346.00
2022-11-29T13:51:30.760Z,95349.97
2022-11-29T13:54:03.096Z,95354.34
2022-11-29T13:56:36.707Z,95346.00
2022-11-29T13:59:09.641Z,95349.41
2022-11-29T14:01:51.471Z,95354.59
2022-11-29T14:04:33.287Z,95359.03
2022-11-29T14:07:11.251Z,95354.78
2022-11-29T14:09:59.399Z,95341.88
2022-11-29T14:12:37.644Z,95343.00
2022-11-29T14:15:18.754Z,95347.66
2022-11-29T14:17:52.438Z,95349.63
2022-11-29T14:20:55.665Z,95352.59
2022-11-29T14:23:43.816Z,95351.72
2022-11-29T14:26:31.403Z,95359.84
2022-11-29T14:29:00.143Z,95357.25
2022-11-29T14:31:51.178Z,95373.50
2022-11-29T14:34:46.830Z,95367.59
2022-11-29T14:37:48.441Z,95377.31
2022-11-29T14:40:30.011Z,95381.97
2022-11-29T14:42:59.356Z,95368.41
2022-11-29T14:45:29.983Z,95373.81
2022-11-29T14:47:59.273Z,95370.09
2022-11-29T14:50:33.283Z,95372.34
2022-11-29T14:53:01.978Z,95376.06
2022-11-29T14:55:36.799Z,95377.03
2022-11-29T14:58:20.904Z,95381.78
2022-11-29T15:01:09.515Z,95381.06
2022-11-29T15:03:43.491Z,95386.09
2022-11-29T15:06:16.185Z,95381.97
2022-11-29T15:08:55.077Z,95377.75
2022-11-29T15:11:32.887Z,95383.84
2022-11-29T15:14:05.906Z,95385.06
2022-11-29T15:16:45.557Z,95388.81
2022-11-29T15:19:46.406Z,95394.88
2022-11-29T15:22:18.752Z,95386.53
2022-11-29T15:24:54.850Z,95391.59
2022-11-29T15:27:22.959Z,95391.78
2022-11-29T15:29:52.773Z,95391.06
2022-11-29T15:32:26.786Z,95392.84
2022-11-29T15:34:56.850Z,95390.25
2022-11-29T15:37:39.734Z,95400.78
2022-11-29T15:40:12.720Z,95402.53
2022-11-29T15:42:43.430Z,95413.28
2022-11-29T15:45:31.546Z,95422.03
2022-11-29T15:48:14.479Z,95406.06
2022-11-29T15:50:47.458Z,95416.69
2022-11-29T15:53:19.519Z,95426.38
2022-11-29T15:55:49.531Z,95421.31
2022-11-29T15:58:18.421Z,95427.31
2022-11-29T16:00:50.470Z,95430.81
2022-11-29T16:03:25.144Z,95435.25
2022-11-29T16:06:01.114Z,95426.66
2022-11-29T16:08:32.557Z,95423.38
2022-11-29T16:11:01.413Z,95427.81
2022-11-29T16:13:37.665Z,95437.28
2022-11-29T16:16:15.729Z,95434.09
2022-11-29T16:18:45.906Z,95424.50
2022-11-29T16:21:26.124Z,95431.41
2022-11-29T16:23:54.605Z,95433.38
2022-11-29T16:26:27.467Z,95425.63
2022-11-29T16:28:57.845Z,95424.19
2022-11-29T16:31:34.260Z,95421.78
2022-11-29T16:34:08.974Z,95433.78
2022-11-29T16:36:40.448Z,95438.19
2022-11-29T16:39:17.409Z,95438.78
2022-11-29T16:41:45.083Z,95438.97
2022-11-29T16:45:00.795Z,95436.50
2022-11-29T16:47:31.468Z,95428.94
2022-11-29T16:50:15.193Z,95428.94
2022-11-29T16:52:43.295Z,95431.81
2022-11-29T16:55:10.961Z,95431.94
2022-11-29T16:57:39.156Z,95441.31
2022-11-29T17:00:22.449Z,95447.41
2022-11-29T17:02:51.542Z,95449.47
2022-11-29T17:05:19.152Z,95447.00
2022-11-29T17:07:47.344Z,95442.75
2022-11-29T17:10:19.688Z,95443.88
2022-11-29T17:12:48.434Z,95451.59
2022-11-29T17:15:16.534Z,95443.34
2022-11-29T17:17:44.439Z,95456.38
2022-11-29T17:20:14.467Z,95444.59
2022-11-29T17:22:42.505Z,95447.00
2022-11-29T17:25:13.419Z,95458.75
2022-11-29T17:27:41.553Z,95456.59
2022-11-29T17:30:11.376Z,95455.31
2022-11-29T17:32:39.170Z,95466.66
2022-11-29T17:35:09.146Z,95468.59
2022-11-29T17:37:59.653Z,95469.72
2022-11-29T17:40:27.393Z,95472.28
2022-11-29T17:43:45.833Z,95470.72
2022-11-29T17:46:15.810Z,95477.56
2022-11-29T17:49:01.317Z,95471.84
2022-11-29T17:54:18.201Z,95481.16
2022-11-29T17:56:45.989Z,95483.75
2022-11-29T17:59:13.813Z,95479.59
2022-11-29T18:05:12.811Z,95479.59
2022-11-29T18:08:19.927Z,95489.13
2022-11-29T18:11:20.067Z,95489.13
2022-11-29T18:14:06.227Z,95483.19
2022-11-29T18:28:04.292Z,95511.22
2022-11-29T18:30:32.008Z,95507.94
2022-11-29T18:32:59.787Z,95518.34
2022-11-29T18:35:28.006Z,95513.41
2022-11-29T18:38:14.853Z,95504.69
2022-11-29T18:40:45.532Z,95503.94
2022-11-29T18:43:17.654Z,95505.50
2022-11-29T18:45:45.568Z,95517.53
2022-11-29T18:48:13.226Z,95518.50
2022-11-29T18:50:40.842Z,95514.13
2022-11-29T18:53:08.469Z,95518.69
2022-11-29T18:55:37.883Z,95521.44
2022-11-29T18:58:07.902Z,95517.72
2022-11-29T19:00:36.868Z,95508.72
2022-11-29T19:03:04.740Z,95499.63
2022-11-29T19:05:32.357Z,95510.25
2022-11-29T19:08:00.023Z,95513.22
2022-11-29T19:10:27.736Z,95512.53
2022-11-29T19:12:55.683Z,95509.94
2022-11-29T19:15:23.262Z,95517.03
2022-11-29T19:17:52.243Z,95521.69
2022-11-29T19:20:48.340Z,95518.09
2022-11-29T19:23:24.458Z,95517.00
2022-11-29T19:25:54.871Z,95524.59
2022-11-29T19:28:35.062Z,95521.97
2022-11-29T19:31:12.252Z,95533.06
2022-11-29T19:33:46.980Z,95525.72
2022-11-29T19:36:34.709Z,95530.44
2022-11-29T19:39:17.982Z,95523.00
2022-11-29T19:41:54.044Z,95527.56
2022-11-29T19:44:48.326Z,95527.88
2022-11-29T19:47:20.431Z,95529.00
2022-11-29T19:49:49.696Z,95524.91
2022-11-29T19:52:17.576Z,95532.66
2022-11-29T19:54:45.178Z,95530.06
2022-11-29T19:57:16.971Z,95537.19
2022-11-29T19:59:47.801Z,95537.91
2022-11-29T20:02:18.128Z,95535.88
2022-11-29T20:04:49.020Z,95532.38
2022-11-29T20:07:19.974Z,95534.31
2022-11-29T20:09:49.897Z,95530.91
2022-11-29T20:12:26.611Z,95538.03
2022-11-29T20:14:54.241Z,95539.16
2022-11-29T20:17:26.425Z,95543.66
2022-11-29T20:19:54.203Z,95540.16
2022-11-29T20:22:23.248Z,95541.81
2022-11-29T20:24:50.989Z,95542.91
2022-11-29T20:27:23.836Z,95549.81
2022-11-29T20:29:51.463Z,95555.25
2022-11-29T20:32:20.037Z,95557.84
2022-11-29T20:34:48.406Z,95556.03
2022-11-29T20:37:44.252Z,95563.28
2022-11-29T20:40:16.903Z,95561.91
2022-11-29T20:43:04.257Z,95565.50
2022-11-29T20:45:32.392Z,95566.63
2022-11-29T20:48:05.500Z,95572.59
2022-11-29T20:50:33.900Z,95579.09
2022-11-29T20:53:15.578Z,95574.53
2022-11-29T20:55:47.889Z,95581.88
2022-11-29T20:58:16.096Z,95573.53
2022-11-29T21:00:45.805Z,95584.00
2022-11-29T21:03:16.043Z,95585.88
2022-11-29T21:05:43.759Z,95580.81
2022-11-29T21:08:14.055Z,95587.06
2022-11-29T21:10:41.768Z,95581.19
2022-11-29T21:13:10.964Z,95576.03
2022-11-29T21:15:39.044Z,95582.19
2022-11-29T21:18:07.459Z,95582.38
2022-11-29T21:20:35.590Z,95585.41
2022-11-29T21:23:10.022Z,95586.41
2022-11-29T21:25:50.703Z,95577.22
2022-11-29T21:28:18.838Z,95572.16
2022-11-29T21:30:46.947Z,95573.25
2022-11-29T21:33:15.820Z,95575.06
2022-11-29T21:35:43.461Z,95572.50
2022-11-29T21:38:14.247Z,95574.34
2022-11-29T21:40:43.321Z,95579.44
2022-11-29T21:43:10.930Z,95584.59
2022-11-29T21:45:38.542Z,95577.97
2022-11-29T21:48:27.502Z,95585.69
2022-11-29T21:51:08.748Z,95580.81
2022-11-29T21:53:37.990Z,95588.44
2022-11-29T21:56:09.796Z,95592.75
2022-11-29T21:58:39.279Z,95586.59
2022-11-29T22:01:09.204Z,95591.75
2022-11-29T22:03:36.870Z,95594.34
2022-11-29T22:06:05.768Z,95592.88
2022-11-29T22:08:38.813Z,95587.88
2022-11-29T22:11:09.205Z,95586.41
2022-11-29T22:13:37.125Z,95590.56
2022-11-29T22:16:07.097Z,95592.56
2022-11-29T22:18:35.026Z,95590.19
2022-11-29T22:21:04.075Z,95586.13
2022-11-29T22:23:31.887Z,95587.78
2022-11-29T22:26:08.736Z,95584.09
2022-11-29T22:28:36.923Z,95584.41
2022-11-29T22:31:07.275Z,95589.63
2022-11-29T22:33:44.114Z,95586.22
2022-11-29T22:36:18.924Z,95590.47
2022-11-29T22:38:50.153Z,95589.53
2022-11-29T22:41:22.136Z,95594.16
2022-11-29T22:44:01.679Z,95598.03
2022-11-29T22:46:30.464Z,95595.88
2022-11-29T22:49:02.267Z,95596.34
2022-11-29T22:51:33.075Z,95585.94
2022-11-29T22:54:04.320Z,95582.72
2022-11-29T22:56:36.276Z,95591.25
2022-11-29T23:02:47.798Z,95582.47
2022-11-29T23:05:15.527Z,95578.84
2022-11-29T23:07:43.196Z,95584.19
2022-11-29T23:10:11.707Z,95587.59
2022-11-29T23:12:40.692Z,95586.28
2022-11-29T23:15:08.670Z,95589.31
2022-11-29T23:17:36.288Z,95589.38
2022-11-29T23:20:05.215Z,95580.19
2022-11-29T23:22:32.887Z,95588.00
2022-11-29T23:25:00.469Z,95597.56
2022-11-29T23:27:28.145Z,95595.34
2022-11-29T23:29:57.086Z,95589.72
2022-11-29T23:32:24.709Z,95587.81
2022-11-29T23:34:52.345Z,95593.50
2022-11-29T23:37:19.961Z,95600.69
2022-11-29T23:39:47.597Z,95592.84
2022-11-29T23:42:15.441Z,95595.16
2022-11-29T23:44:43.046Z,95599.56
2022-11-29T23:47:11.974Z,95601.34
2022-11-29T23:49:39.836Z,95594.03
2022-11-29T23:52:07.520Z,95592.03
2022-11-29T23:54:35.110Z,95588.72
2022-11-29T23:57:02.719Z,95590.72
2022-11-29T23:59:30.329Z,95594.19
